sensor_id;sensor_type;location;lat;lon;timestamp;temperature;humidity
44063;DHT22;29727;47.606;19.130;2022-11-15T00:00:26;7.80;87.40
44063;DHT22;29727;47.606;19.130;2022-11-15T00:02:52;7.80;87.70
44063;DHT22;29727;47.606;19.130;2022-11-15T00:05:18;7.80;88.10
44063;DHT22;29727;47.606;19.130;2022-11-15T00:07:44;7.80;88.30
44063;DHT22;29727;47.606;19.130;2022-11-15T00:10:10;7.90;87.70
44063;DHT22;29727;47.606;19.130;2022-11-15T00:12:36;7.80;88.10
44063;DHT22;29727;47.606;19.130;2022-11-15T00:15:02;7.90;88.20
44063;DHT22;29727;47.606;19.130;2022-11-15T00:17:28;8.10;88.10
44063;DHT22;29727;47.606;19.130;2022-11-15T00:19:53;7.90;88.40
44063;DHT22;29727;47.606;19.130;2022-11-15T00:22:19;8.00;88.50
44063;DHT22;29727;47.606;19.130;2022-11-15T00:24:45;8.00;87.90
44063;DHT22;29727;47.606;19.130;2022-11-15T00:27:10;8.00;88.40
44063;DHT22;29727;47.606;19.130;2022-11-15T00:32:04;8.10;88.00
44063;DHT22;29727;47.606;19.130;2022-11-15T00:34:30;8.10;88.30
44063;DHT22;29727;47.606;19.130;2022-11-15T00:36:56;8.20;87.30
44063;DHT22;29727;47.606;19.130;2022-11-15T00:39:22;8.10;87.70
44063;DHT22;29727;47.606;19.130;2022-11-15T00:41:47;8.20;87.80
44063;DHT22;29727;47.606;19.130;2022-11-15T00:44:13;8.40;87.30
44063;DHT22;29727;47.606;19.130;2022-11-15T00:46:39;8.30;87.80
44063;DHT22;29727;47.606;19.130;2022-11-15T00:49:04;8.30;86.90
44063;DHT22;29727;47.606;19.130;2022-11-15T00:51:30;8.30;87.40
44063;DHT22;29727;47.606;19.130;2022-11-15T00:53:56;8.40;87.40
44063;DHT22;29727;47.606;19.130;2022-11-15T00:56:21;8.40;86.10
44063;DHT22;29727;47.606;19.130;2022-11-15T00:58:47;8.40;86.60
44063;DHT22;29727;47.606;19.130;2022-11-15T01:01:13;8.50;86.50
44063;DHT22;29727;47.606;19.130;2022-11-15T01:03:40;8.50;86.10
44063;DHT22;29727;47.606;19.130;2022-11-15T01:06:07;8.50;86.50
44063;DHT22;29727;47.606;19.130;2022-11-15T01:08:34;8.50;86.70
44063;DHT22;29727;47.606;19.130;2022-11-15T01:11:05;8.60;85.90
44063;DHT22;29727;47.606;19.130;2022-11-15T01:13:32;8.50;86.30
44063;DHT22;29727;47.606;19.130;2022-11-15T01:15:59;8.50;85.20
44063;DHT22;29727;47.606;19.130;2022-11-15T01:18:25;8.60;85.60
44063;DHT22;29727;47.606;19.130;2022-11-15T01:20:51;8.50;86.20
44063;DHT22;29727;47.606;19.130;2022-11-15T01:23:16;8.40;85.10
44063;DHT22;29727;47.606;19.130;2022-11-15T01:25:42;8.50;85.70
44063;DHT22;29727;47.606;19.130;2022-11-15T01:28:08;8.60;85.70
44063;DHT22;29727;47.606;19.130;2022-11-15T01:30:33;8.60;85.00
44063;DHT22;29727;47.606;19.130;2022-11-15T01:33:00;8.50;85.60
44063;DHT22;29727;47.606;19.130;2022-11-15T01:35:26;8.60;84.90
44063;DHT22;29727;47.606;19.130;2022-11-15T01:37:52;8.60;85.40
44063;DHT22;29727;47.606;19.130;2022-11-15T01:40:17;8.60;84.40
44063;DHT22;29727;47.606;19.130;2022-11-15T01:42:43;8.60;84.30
44063;DHT22;29727;47.606;19.130;2022-11-15T01:45:16;8.60;84.80
44063;DHT22;29727;47.606;19.130;2022-11-15T01:47:45;8.60;84.60
44063;DHT22;29727;47.606;19.130;2022-11-15T01:50:17;8.50;85.10
44063;DHT22;29727;47.606;19.130;2022-11-15T01:52:44;8.60;85.30
44063;DHT22;29727;47.606;19.130;2022-11-15T01:55:21;8.60;85.20
44063;DHT22;29727;47.606;19.130;2022-11-15T01:57:51;8.50;84.60
44063;DHT22;29727;47.606;19.130;2022-11-15T02:00:18;8.50;84.60
44063;DHT22;29727;47.606;19.130;2022-11-15T02:02:44;8.50;84.80
44063;DHT22;29727;47.606;19.130;2022-11-15T02:05:12;8.50;83.40
44063;DHT22;29727;47.606;19.130;2022-11-15T02:07:40;8.40;83.40
44063;DHT22;29727;47.606;19.130;2022-11-15T02:10:12;8.50;84.50
44063;DHT22;29727;47.606;19.130;2022-11-15T02:12:39;8.40;85.10
44063;DHT22;29727;47.606;19.130;2022-11-15T02:15:06;8.40;85.20
44063;DHT22;29727;47.606;19.130;2022-11-15T02:29:05;8.50;85.20
44063;DHT22;29727;47.606;19.130;2022-11-15T02:37:01;8.50;85.10
44063;DHT22;29727;47.606;19.130;2022-11-15T02:39:50;8.50;85.40
44063;DHT22;29727;47.606;19.130;2022-11-15T02:42:31;8.50;85.00
44063;DHT22;29727;47.606;19.130;2022-11-15T02:45:21;8.50;84.80
44063;DHT22;29727;47.606;19.130;2022-11-15T02:47:51;8.50;84.40
44063;DHT22;29727;47.606;19.130;2022-11-15T02:50:21;8.60;84.00
44063;DHT22;29727;47.606;19.130;2022-11-15T02:52:51;8.50;84.40
44063;DHT22;29727;47.606;19.130;2022-11-15T03:04:27;8.50;84.40
44063;DHT22;29727;47.606;19.130;2022-11-15T03:07:22;8.50;83.70
44063;DHT22;29727;47.606;19.130;2022-11-15T03:12:56;8.40;84.00
44063;DHT22;29727;47.606;19.130;2022-11-15T03:15:37;8.40;84.70
44063;DHT22;29727;47.606;19.130;2022-11-15T03:18:19;8.30;84.50
44063;DHT22;29727;47.606;19.130;2022-11-15T03:20:47;8.30;85.20
44063;DHT22;29727;47.606;19.130;2022-11-15T03:23:13;8.30;86.10
44063;DHT22;29727;47.606;19.130;2022-11-15T03:25:47;8.30;86.70
44063;DHT22;29727;47.606;19.130;2022-11-15T03:28:16;8.30;86.30
44063;DHT22;29727;47.606;19.130;2022-11-15T03:30:44;8.30;85.70
44063;DHT22;29727;47.606;19.130;2022-11-15T03:33:11;8.30;84.70
44063;DHT22;29727;47.606;19.130;2022-11-15T03:35:40;8.30;85.10
44063;DHT22;29727;47.606;19.130;2022-11-15T03:40:49;8.30;84.90
44063;DHT22;29727;47.606;19.130;2022-11-15T03:46:43;8.30;85.40
44063;DHT22;29727;47.606;19.130;2022-11-15T03:49:24;8.30;84.60
44063;DHT22;29727;47.606;19.130;2022-11-15T03:51:51;8.30;85.30
44063;DHT22;29727;47.606;19.130;2022-11-15T03:54:17;8.30;85.40
44063;DHT22;29727;47.606;19.130;2022-11-15T03:56:42;8.30;86.20
44063;DHT22;29727;47.606;19.130;2022-11-15T03:59:08;8.30;85.00
44063;DHT22;29727;47.606;19.130;2022-11-15T04:01:33;8.30;85.50
44063;DHT22;29727;47.606;19.130;2022-11-15T04:03:59;8.40;85.50
44063;DHT22;29727;47.606;19.130;2022-11-15T04:06:25;8.40;84.70
44063;DHT22;29727;47.606;19.130;2022-11-15T04:08:50;8.40;84.50
44063;DHT22;29727;47.606;19.130;2022-11-15T04:11:16;8.40;84.90
44063;DHT22;29727;47.606;19.130;2022-11-15T04:13:41;8.40;84.80
44063;DHT22;29727;47.606;19.130;2022-11-15T04:16:07;8.40;84.70
44063;DHT22;29727;47.606;19.130;2022-11-15T04:18:33;8.40;85.00
44063;DHT22;29727;47.606;19.130;2022-11-15T04:20:58;8.50;84.50
44063;DHT22;29727;47.606;19.130;2022-11-15T04:23:42;8.50;84.40
44063;DHT22;29727;47.606;19.130;2022-11-15T04:26:31;8.40;84.50
44063;DHT22;29727;47.606;19.130;2022-11-15T04:28:57;8.50;84.30
44063;DHT22;29727;47.606;19.130;2022-11-15T04:31:41;8.50;84.80
44063;DHT22;29727;47.606;19.130;2022-11-15T04:34:07;8.40;83.70
44063;DHT22;29727;47.606;19.130;2022-11-15T04:36:33;8.40;84.10
44063;DHT22;29727;47.606;19.130;2022-11-15T04:39:17;8.40;84.90
44063;DHT22;29727;47.606;19.130;2022-11-15T04:41:42;8.30;85.40
44063;DHT22;29727;47.606;19.130;2022-11-15T04:44:08;8.30;85.70
44063;DHT22;29727;47.606;19.130;2022-11-15T04:46:35;8.10;85.90
44063;DHT22;29727;47.606;19.130;2022-11-15T04:49:00;8.30;86.50
44063;DHT22;29727;47.606;19.130;2022-11-15T04:51:26;8.30;86.90
44063;DHT22;29727;47.606;19.130;2022-11-15T04:53:52;8.30;86.10
44063;DHT22;29727;47.606;19.130;2022-11-15T04:56:18;8.30;86.20
44063;DHT22;29727;47.606;19.130;2022-11-15T04:58:43;8.40;85.40
44063;DHT22;29727;47.606;19.130;2022-11-15T05:01:13;8.30;85.80
44063;DHT22;29727;47.606;19.130;2022-11-15T05:03:40;8.40;85.60
44063;DHT22;29727;47.606;19.130;2022-11-15T05:06:25;8.30;85.80
44063;DHT22;29727;47.606;19.130;2022-11-15T05:08:51;8.30;85.20
44063;DHT22;29727;47.606;19.130;2022-11-15T05:11:17;8.20;85.60
44063;DHT22;29727;47.606;19.130;2022-11-15T05:13:42;8.20;86.10
44063;DHT22;29727;47.606;19.130;2022-11-15T05:16:11;8.20;86.40
44063;DHT22;29727;47.606;19.130;2022-11-15T05:18:39;8.10;86.40
44063;DHT22;29727;47.606;19.130;2022-11-15T05:21:08;8.20;87.60
44063;DHT22;29727;47.606;19.130;2022-11-15T05:23:34;8.30;87.80
44063;DHT22;29727;47.606;19.130;2022-11-15T05:26:01;8.20;88.20
44063;DHT22;29727;47.606;19.130;2022-11-15T05:28:27;8.20;87.30
44063;DHT22;29727;47.606;19.130;2022-11-15T05:30:53;8.20;87.80
44063;DHT22;29727;47.606;19.130;2022-11-15T05:33:19;8.30;87.40
44063;DHT22;29727;47.606;19.130;2022-11-15T05:35:52;8.30;86.50
44063;DHT22;29727;47.606;19.130;2022-11-15T05:38:20;8.30;87.10
44063;DHT22;29727;47.606;19.130;2022-11-15T05:40:46;8.30;87.80
44063;DHT22;29727;47.606;19.130;2022-11-15T05:43:11;8.30;88.10
44063;DHT22;29727;47.606;19.130;2022-11-15T05:45:37;8.30;87.80
44063;DHT22;29727;47.606;19.130;2022-11-15T05:48:06;8.40;87.80
44063;DHT22;29727;47.606;19.130;2022-11-15T05:50:33;8.40;88.30
44063;DHT22;29727;47.606;19.130;2022-11-15T05:53:00;8.50;88.00
44063;DHT22;29727;47.606;19.130;2022-11-15T05:55:26;8.60;87.10
44063;DHT22;29727;47.606;19.130;2022-11-15T05:57:52;8.50;87.40
44063;DHT22;29727;47.606;19.130;2022-11-15T06:00:18;8.60;85.30
44063;DHT22;29727;47.606;19.130;2022-11-15T06:02:43;8.60;85.40
44063;DHT22;29727;47.606;19.130;2022-11-15T06:05:09;8.60;86.10
44063;DHT22;29727;47.606;19.130;2022-11-15T06:07:35;8.70;86.00
44063;DHT22;29727;47.606;19.130;2022-11-15T06:10:00;8.70;85.90
44063;DHT22;29727;47.606;19.130;2022-11-15T06:12:26;8.70;86.40
44063;DHT22;29727;47.606;19.130;2022-11-15T06:14:52;8.70;86.20
44063;DHT22;29727;47.606;19.130;2022-11-15T06:17:17;8.80;85.20
44063;DHT22;29727;47.606;19.130;2022-11-15T06:19:43;8.80;85.30
44063;DHT22;29727;47.606;19.130;2022-11-15T06:22:08;8.80;85.20
44063;DHT22;29727;47.606;19.130;2022-11-15T06:24:35;8.80;85.50
44063;DHT22;29727;47.606;19.130;2022-11-15T06:27:00;8.80;85.10
44063;DHT22;29727;47.606;19.130;2022-11-15T06:29:26;8.80;85.60
44063;DHT22;29727;47.606;19.130;2022-11-15T06:31:51;8.80;85.60
44063;DHT22;29727;47.606;19.130;2022-11-15T06:34:18;8.80;85.50
44063;DHT22;29727;47.606;19.130;2022-11-15T06:36:44;8.80;85.60
44063;DHT22;29727;47.606;19.130;2022-11-15T06:39:09;8.80;85.30
44063;DHT22;29727;47.606;19.130;2022-11-15T06:41:35;8.80;84.70
44063;DHT22;29727;47.606;19.130;2022-11-15T06:44:02;8.90;85.10
44063;DHT22;29727;47.606;19.130;2022-11-15T06:46:28;8.90;85.10
44063;DHT22;29727;47.606;19.130;2022-11-15T06:48:54;8.90;85.30
44063;DHT22;29727;47.606;19.130;2022-11-15T06:51:20;8.90;85.40
44063;DHT22;29727;47.606;19.130;2022-11-15T06:53:46;8.90;85.50
44063;DHT22;29727;47.606;19.130;2022-11-15T06:56:11;8.90;85.90
44063;DHT22;29727;47.606;19.130;2022-11-15T06:58:37;8.90;85.60
44063;DHT22;29727;47.606;19.130;2022-11-15T07:01:09;8.90;85.90
44063;DHT22;29727;47.606;19.130;2022-11-15T07:03:36;8.90;86.20
44063;DHT22;29727;47.606;19.130;2022-11-15T07:06:04;8.90;86.30
44063;DHT22;29727;47.606;19.130;2022-11-15T07:08:29;8.80;86.40
44063;DHT22;29727;47.606;19.130;2022-11-15T07:10:59;8.80;87.10
44063;DHT22;29727;47.606;19.130;2022-11-15T07:13:26;8.90;86.90
44063;DHT22;29727;47.606;19.130;2022-11-15T07:15:52;8.90;87.30
44063;DHT22;29727;47.606;19.130;2022-11-15T07:18:18;9.00;87.00
44063;DHT22;29727;47.606;19.130;2022-11-15T07:20:44;8.90;86.20
44063;DHT22;29727;47.606;19.130;2022-11-15T07:23:10;9.00;86.60
44063;DHT22;29727;47.606;19.130;2022-11-15T07:25:35;9.00;85.80
44063;DHT22;29727;47.606;19.130;2022-11-15T07:28:02;9.00;86.30
44063;DHT22;29727;47.606;19.130;2022-11-15T07:30:28;9.00;85.90
44063;DHT22;29727;47.606;19.130;2022-11-15T07:32:58;9.10;86.20
44063;DHT22;29727;47.606;19.130;2022-11-15T07:35:27;9.00;86.60
44063;DHT22;29727;47.606;19.130;2022-11-15T07:37:58;9.00;86.00
44063;DHT22;29727;47.606;19.130;2022-11-15T07:40:25;9.10;86.60
44063;DHT22;29727;47.606;19.130;2022-11-15T07:42:51;9.00;86.80
44063;DHT22;29727;47.606;19.130;2022-11-15T07:45:22;9.00;87.10
44063;DHT22;29727;47.606;19.130;2022-11-15T07:47:49;9.10;86.10
44063;DHT22;29727;47.606;19.130;2022-11-15T07:50:19;9.00;86.40
44063;DHT22;29727;47.606;19.130;2022-11-15T07:52:45;9.10;86.90
44063;DHT22;29727;47.606;19.130;2022-11-15T07:55:11;9.20;86.50
44063;DHT22;29727;47.606;19.130;2022-11-15T07:57:37;9.20;85.90
44063;DHT22;29727;47.606;19.130;2022-11-15T08:00:04;9.20;86.40
44063;DHT22;29727;47.606;19.130;2022-11-15T08:02:30;9.20;86.90
44063;DHT22;29727;47.606;19.130;2022-11-15T08:04:56;9.30;87.10
44063;DHT22;29727;47.606;19.130;2022-11-15T08:07:21;9.30;87.00
44063;DHT22;29727;47.606;19.130;2022-11-15T08:09:47;9.40;85.60
44063;DHT22;29727;47.606;19.130;2022-11-15T08:12:14;9.40;86.10
44063;DHT22;29727;47.606;19.130;2022-11-15T08:14:40;9.40;86.10
44063;DHT22;29727;47.606;19.130;2022-11-15T08:17:05;9.50;85.70
44063;DHT22;29727;47.606;19.130;2022-11-15T08:19:31;9.40;86.20
44063;DHT22;29727;47.606;19.130;2022-11-15T08:21:57;9.50;86.10
44063;DHT22;29727;47.606;19.130;2022-11-15T08:24:23;9.50;86.20
44063;DHT22;29727;47.606;19.130;2022-11-15T08:26:49;9.50;87.00
44063;DHT22;29727;47.606;19.130;2022-11-15T08:29:14;9.60;85.60
44063;DHT22;29727;47.606;19.130;2022-11-15T08:31:40;9.60;85.70
44063;DHT22;29727;47.606;19.130;2022-11-15T08:34:06;9.70;85.90
44063;DHT22;29727;47.606;19.130;2022-11-15T08:36:32;9.70;85.00
44063;DHT22;29727;47.606;19.130;2022-11-15T08:38:57;9.70;84.90
44063;DHT22;29727;47.606;19.130;2022-11-15T08:41:30;9.60;84.40
44063;DHT22;29727;47.606;19.130;2022-11-15T08:43:56;9.60;84.90
44063;DHT22;29727;47.606;19.130;2022-11-15T08:46:22;9.60;85.10
44063;DHT22;29727;47.606;19.130;2022-11-15T08:48:48;9.60;85.10
44063;DHT22;29727;47.606;19.130;2022-11-15T08:51:13;9.60;85.60
44063;DHT22;29727;47.606;19.130;2022-11-15T08:53:39;9.60;86.00
44063;DHT22;29727;47.606;19.130;2022-11-15T08:56:10;9.60;86.00
44063;DHT22;29727;47.606;19.130;2022-11-15T08:58:36;9.60;86.50
44063;DHT22;29727;47.606;19.130;2022-11-15T09:01:02;9.60;85.80
44063;DHT22;29727;47.606;19.130;2022-11-15T09:03:28;9.60;86.30
44063;DHT22;29727;47.606;19.130;2022-11-15T09:05:58;9.60;85.70
44063;DHT22;29727;47.606;19.130;2022-11-15T09:08:25;9.60;86.90
44063;DHT22;29727;47.606;19.130;2022-11-15T09:10:51;9.60;87.10
44063;DHT22;29727;47.606;19.130;2022-11-15T09:13:17;9.60;87.40
44063;DHT22;29727;47.606;19.130;2022-11-15T09:15:42;9.70;86.50
44063;DHT22;29727;47.606;19.130;2022-11-15T09:18:08;9.70;87.00
44063;DHT22;29727;47.606;19.130;2022-11-15T09:20:34;9.70;87.00
44063;DHT22;29727;47.606;19.130;2022-11-15T09:23:03;9.70;87.40
44063;DHT22;29727;47.606;19.130;2022-11-15T09:25:30;9.80;86.70
44063;DHT22;29727;47.606;19.130;2022-11-15T09:27:56;9.80;87.30
44063;DHT22;29727;47.606;19.130;2022-11-15T09:30:23;9.80;87.00
44063;DHT22;29727;47.606;19.130;2022-11-15T09:32:49;9.90;87.30
44063;DHT22;29727;47.606;19.130;2022-11-15T09:35:15;9.90;86.90
44063;DHT22;29727;47.606;19.130;2022-11-15T09:37:41;9.90;86.70
44063;DHT22;29727;47.606;19.130;2022-11-15T09:40:11;10.00;86.80
44063;DHT22;29727;47.606;19.130;2022-11-15T09:48:45;10.10;86.60
44063;DHT22;29727;47.606;19.130;2022-11-15T09:51:21;11.50;87.50
44063;DHT22;29727;47.606;19.130;2022-11-15T09:53:57;10.10;86.60
44063;DHT22;29727;47.606;19.130;2022-11-15T09:56:30;10.10;87.10
44063;DHT22;29727;47.606;19.130;2022-11-15T10:04:45;10.20;87.30
44063;DHT22;29727;47.606;19.130;2022-11-15T10:10:20;10.20;87.60
44063;DHT22;29727;47.606;19.130;2022-11-15T10:12:49;10.30;88.00
44063;DHT22;29727;47.606;19.130;2022-11-15T10:15:17;10.30;87.50
44063;DHT22;29727;47.606;19.130;2022-11-15T10:18:14;10.40;86.70
44063;DHT22;29727;47.606;19.130;2022-11-15T10:21:10;10.50;85.40
44063;DHT22;29727;47.606;19.130;2022-11-15T10:23:38;10.40;85.40
44063;DHT22;29727;47.606;19.130;2022-11-15T10:26:09;10.40;84.70
44063;DHT22;29727;47.606;19.130;2022-11-15T10:28:36;10.40;85.50
44063;DHT22;29727;47.606;19.130;2022-11-15T10:31:02;10.40;85.60
44063;DHT22;29727;47.606;19.130;2022-11-15T10:33:36;10.40;85.30
44063;DHT22;29727;47.606;19.130;2022-11-15T10:41:14;10.30;87.00
44063;DHT22;29727;47.606;19.130;2022-11-15T10:43:40;10.30;86.60
44063;DHT22;29727;47.606;19.130;2022-11-15T10:46:21;10.30;87.10
44063;DHT22;29727;47.606;19.130;2022-11-15T10:48:47;10.40;86.20
44063;DHT22;29727;47.606;19.130;2022-11-15T10:51:27;10.40;86.90
44063;DHT22;29727;47.606;19.130;2022-11-15T10:53:56;10.40;87.10
44063;DHT22;29727;47.606;19.130;2022-11-15T10:56:24;10.40;87.40
44063;DHT22;29727;47.606;19.130;2022-11-15T10:58:54;10.50;87.50
44063;DHT22;29727;47.606;19.130;2022-11-15T11:01:28;10.60;86.30
44063;DHT22;29727;47.606;19.130;2022-11-15T11:04:03;10.60;86.80
44063;DHT22;29727;47.606;19.130;2022-11-15T11:06:30;10.70;87.00
44063;DHT22;29727;47.606;19.130;2022-11-15T11:09:02;10.70;86.40
44063;DHT22;29727;47.606;19.130;2022-11-15T11:12:00;10.80;85.80
44063;DHT22;29727;47.606;19.130;2022-11-15T11:14:30;10.80;86.20
44063;DHT22;29727;47.606;19.130;2022-11-15T11:31:13;11.00;85.10
44063;DHT22;29727;47.606;19.130;2022-11-15T11:36:18;11.10;84.10
44063;DHT22;29727;47.606;19.130;2022-11-15T11:47:09;11.00;83.70
44063;DHT22;29727;47.606;19.130;2022-11-15T11:49:55;10.90;84.50
44063;DHT22;29727;47.606;19.130;2022-11-15T11:52:31;10.90;85.00
44063;DHT22;29727;47.606;19.130;2022-11-15T11:58:04;10.80;86.00
44063;DHT22;29727;47.606;19.130;2022-11-15T12:00:34;10.80;86.20
44063;DHT22;29727;47.606;19.130;2022-11-15T12:03:18;10.80;86.80
44063;DHT22;29727;47.606;19.130;2022-11-15T12:06:00;10.80;86.40
44063;DHT22;29727;47.606;19.130;2022-11-15T12:08:51;10.80;85.80
44063;DHT22;29727;47.606;19.130;2022-11-15T12:11:28;10.80;86.10
44063;DHT22;29727;47.606;19.130;2022-11-15T12:14:03;10.80;86.30
44063;DHT22;29727;47.606;19.130;2022-11-15T12:16:31;10.90;85.50
44063;DHT22;29727;47.606;19.130;2022-11-15T12:19:03;10.90;85.30
44063;DHT22;29727;47.606;19.130;2022-11-15T12:22:05;10.90;85.10
44063;DHT22;29727;47.606;19.130;2022-11-15T12:24:40;10.90;85.50
44063;DHT22;29727;47.606;19.130;2022-11-15T12:29:46;10.90;85.90
44063;DHT22;29727;47.606;19.130;2022-11-15T12:32:33;10.90;86.10
44063;DHT22;29727;47.606;19.130;2022-11-15T12:35:01;11.00;86.00
44063;DHT22;29727;47.606;19.130;2022-11-15T12:43:00;11.10;85.10
44063;DHT22;29727;47.606;19.130;2022-11-15T12:45:31;11.10;85.60
44063;DHT22;29727;47.606;19.130;2022-11-15T12:53:26;11.20;85.00
44063;DHT22;29727;47.606;19.130;2022-11-15T13:14:50;11.30;83.40
44063;DHT22;29727;47.606;19.130;2022-11-15T13:22:41;11.30;84.10
44063;DHT22;29727;47.606;19.130;2022-11-15T13:27:46;11.30;83.50
44063;DHT22;29727;47.606;19.130;2022-11-15T13:30:24;11.20;83.10
44063;DHT22;29727;47.606;19.130;2022-11-15T13:32:51;11.20;83.60
44063;DHT22;29727;47.606;19.130;2022-11-15T13:35:28;11.10;84.00
44063;DHT22;29727;47.606;19.130;2022-11-15T13:37:56;11.10;84.50
44063;DHT22;29727;47.606;19.130;2022-11-15T13:40:35;11.10;84.80
44063;DHT22;29727;47.606;19.130;2022-11-15T13:43:31;11.00;84.90
44063;DHT22;29727;47.606;19.130;2022-11-15T13:46:28;11.00;85.10
44063;DHT22;29727;47.606;19.130;2022-11-15T13:48:59;11.00;85.80
44063;DHT22;29727;47.606;19.130;2022-11-15T13:51:39;11.00;86.30
44063;DHT22;29727;47.606;19.130;2022-11-15T13:54:29;11.00;85.90
44063;DHT22;29727;47.606;19.130;2022-11-15T13:59:25;11.10;85.60
44063;DHT22;29727;47.606;19.130;2022-11-15T14:01:52;11.10;85.30
44063;DHT22;29727;47.606;19.130;2022-11-15T14:04:22;11.10;85.40
44063;DHT22;29727;47.606;19.130;2022-11-15T14:06:52;11.10;85.60
44063;DHT22;29727;47.606;19.130;2022-11-15T14:11:58;11.10;84.60
44063;DHT22;29727;47.606;19.130;2022-11-15T14:14:25;11.10;84.80
44063;DHT22;29727;47.606;19.130;2022-11-15T14:16:54;11.10;84.50
44063;DHT22;29727;47.606;19.130;2022-11-15T14:24:33;11.10;84.80
44063;DHT22;29727;47.606;19.130;2022-11-15T14:27:23;11.10;84.80
44063;DHT22;29727;47.606;19.130;2022-11-15T14:29:50;11.10;84.50
44063;DHT22;29727;47.606;19.130;2022-11-15T14:32:21;11.20;87.40
44063;DHT22;29727;47.606;19.130;2022-11-15T14:34:49;11.20;87.90
44063;DHT22;29727;47.606;19.130;2022-11-15T14:37:27;11.30;90.60
44063;DHT22;29727;47.606;19.130;2022-11-15T14:39:54;11.50;90.70
44063;DHT22;29727;47.606;19.130;2022-11-15T14:42:22;11.70;91.40
44063;DHT22;29727;47.606;19.130;2022-11-15T14:44:48;11.90;90.60
44063;DHT22;29727;47.606;19.130;2022-11-15T14:47:14;12.00;86.80
44063;DHT22;29727;47.606;19.130;2022-11-15T14:49:40;12.00;87.00
44063;DHT22;29727;47.606;19.130;2022-11-15T14:54:54;12.10;84.30
44063;DHT22;29727;47.606;19.130;2022-11-15T14:57:20;12.10;82.30
44063;DHT22;29727;47.606;19.130;2022-11-15T14:59:45;12.10;82.80
44063;DHT22;29727;47.606;19.130;2022-11-15T15:02:24;12.10;82.20
44063;DHT22;29727;47.606;19.130;2022-11-15T15:04:50;12.10;82.00
44063;DHT22;29727;47.606;19.130;2022-11-15T15:07:17;12.00;81.60
44063;DHT22;29727;47.606;19.130;2022-11-15T15:09:43;12.00;80.90
44063;DHT22;29727;47.606;19.130;2022-11-15T15:12:20;11.90;80.40
44063;DHT22;29727;47.606;19.130;2022-11-15T15:14:48;11.90;80.10
44063;DHT22;29727;47.606;19.130;2022-11-15T15:17:14;11.80;80.50
44063;DHT22;29727;47.606;19.130;2022-11-15T15:19:40;11.70;80.90
44063;DHT22;29727;47.606;19.130;2022-11-15T15:22:16;11.60;80.90
44063;DHT22;29727;47.606;19.130;2022-11-15T15:24:43;11.60;81.30
44063;DHT22;29727;47.606;19.130;2022-11-15T15:27:09;11.60;81.40
44063;DHT22;29727;47.606;19.130;2022-11-15T15:29:35;11.50;81.50
44063;DHT22;29727;47.606;19.130;2022-11-15T15:32:01;11.50;81.70
44063;DHT22;29727;47.606;19.130;2022-11-15T15:34:26;11.40;81.30
44063;DHT22;29727;47.606;19.130;2022-11-15T15:37:22;11.40;81.90
44063;DHT22;29727;47.606;19.130;2022-11-15T15:39:54;11.40;81.80
44063;DHT22;29727;47.606;19.130;2022-11-15T15:42:21;11.30;82.50
44063;DHT22;29727;47.606;19.130;2022-11-15T15:47:19;11.30;81.80
44063;DHT22;29727;47.606;19.130;2022-11-15T15:49:45;11.30;82.40
44063;DHT22;29727;47.606;19.130;2022-11-15T15:52:11;11.30;82.50
44063;DHT22;29727;47.606;19.130;2022-11-15T15:54:38;11.30;82.20
44063;DHT22;29727;47.606;19.130;2022-11-15T15:57:04;11.20;82.20
44063;DHT22;29727;47.606;19.130;2022-11-15T15:59:30;11.20;82.60
44063;DHT22;29727;47.606;19.130;2022-11-15T16:01:56;11.10;82.60
44063;DHT22;29727;47.606;19.130;2022-11-15T16:04:22;11.10;82.60
44063;DHT22;29727;47.606;19.130;2022-11-15T16:06:48;11.10;82.20
44063;DHT22;29727;47.606;19.130;2022-11-15T16:09:17;11.10;82.30
44063;DHT22;29727;47.606;19.130;2022-11-15T16:11:44;11.10;82.60
44063;DHT22;29727;47.606;19.130;2022-11-15T16:14:11;11.00;82.90
44063;DHT22;29727;47.606;19.130;2022-11-15T16:16:37;11.00;82.70
44063;DHT22;29727;47.606;19.130;2022-11-15T16:19:04;11.00;83.20
44063;DHT22;29727;47.606;19.130;2022-11-15T16:21:30;11.00;83.20
44063;DHT22;29727;47.606;19.130;2022-11-15T16:23:56;11.00;82.90
44063;DHT22;29727;47.606;19.130;2022-11-15T16:26:26;11.00;82.80
44063;DHT22;29727;47.606;19.130;2022-11-15T16:28:52;10.90;83.30
44063;DHT22;29727;47.606;19.130;2022-11-15T16:31:18;10.90;83.50
44063;DHT22;29727;47.606;19.130;2022-11-15T16:33:46;10.90;83.80
44063;DHT22;29727;47.606;19.130;2022-11-15T16:36:23;10.90;83.50
44063;DHT22;29727;47.606;19.130;2022-11-15T16:38:50;10.80;83.90
44063;DHT22;29727;47.606;19.130;2022-11-15T16:41:16;10.90;83.70
44063;DHT22;29727;47.606;19.130;2022-11-15T16:43:47;10.80;83.40
44063;DHT22;29727;47.606;19.130;2022-11-15T16:46:22;10.80;82.70
44063;DHT22;29727;47.606;19.130;2022-11-15T16:48:49;10.80;83.50
44063;DHT22;29727;47.606;19.130;2022-11-15T16:51:15;10.70;83.70
44063;DHT22;29727;47.606;19.130;2022-11-15T16:53:41;10.70;83.90
44063;DHT22;29727;47.606;19.130;2022-11-15T16:58:55;10.70;84.50
44063;DHT22;29727;47.606;19.130;2022-11-15T17:01:27;10.80;84.10
44063;DHT22;29727;47.606;19.130;2022-11-15T17:03:53;10.70;84.50
44063;DHT22;29727;47.606;19.130;2022-11-15T17:06:19;10.80;84.10
44063;DHT22;29727;47.606;19.130;2022-11-15T17:08:46;10.80;83.80
44063;DHT22;29727;47.606;19.130;2022-11-15T17:11:17;10.80;84.00
44063;DHT22;29727;47.606;19.130;2022-11-15T17:13:44;10.80;84.40
44063;DHT22;29727;47.606;19.130;2022-11-15T17:16:12;10.80;84.60
44063;DHT22;29727;47.606;19.130;2022-11-15T17:18:39;10.80;84.20
44063;DHT22;29727;47.606;19.130;2022-11-15T17:21:16;10.80;83.80
44063;DHT22;29727;47.606;19.130;2022-11-15T17:23:43;10.80;84.40
44063;DHT22;29727;47.606;19.130;2022-11-15T17:26:10;10.70;84.20
44063;DHT22;29727;47.606;19.130;2022-11-15T17:28:37;10.70;84.30
44063;DHT22;29727;47.606;19.130;2022-11-15T17:31:06;10.70;84.70
44063;DHT22;29727;47.606;19.130;2022-11-15T17:33:32;10.70;84.10
44063;DHT22;29727;47.606;19.130;2022-11-15T17:36:00;10.70;84.60
44063;DHT22;29727;47.606;19.130;2022-11-15T17:38:26;10.70;84.60
44063;DHT22;29727;47.606;19.130;2022-11-15T17:41:05;10.70;83.90
44063;DHT22;29727;47.606;19.130;2022-11-15T17:43:33;10.80;84.20
44063;DHT22;29727;47.606;19.130;2022-11-15T17:46:03;10.80;83.60
44063;DHT22;29727;47.606;19.130;2022-11-15T17:48:30;10.80;84.20
44063;DHT22;29727;47.606;19.130;2022-11-15T17:50:57;10.80;84.20
44063;DHT22;29727;47.606;19.130;2022-11-15T17:53:23;10.80;84.20
44063;DHT22;29727;47.606;19.130;2022-11-15T17:55:49;10.80;84.00
44063;DHT22;29727;47.606;19.130;2022-11-15T17:58:15;10.80;83.50
44063;DHT22;29727;47.606;19.130;2022-11-15T18:00:47;10.80;83.50